OKBO2: North Canadian River at Britton Rd at OKC, OK

Data processed at Sat Nov 17 2018 21:32


All information presented herein is the property of the government of the United States of America and may be revised or deleted at any time without prior notice.
Dissemination of this information without the expressed written consent of the Public Affairs Office, Tulsa District U.S. Army Corps of Engineers is strictly prohibited.
These data are gathered electronically and, as presented, have not undergone any form of quality control. These data are not guaranteed to be valid or correct.
Go to home page.
Go to station list.
Go to home page.

Upstream stations:

Downstream station:
Previous Day
Next Day
Current Day
    
SHEF ID:       OKBO2     North Canadian River at Britton
STATION TYPE:  

                STAGE  RIV-FLOW  WTR-TEMP   DIS-OXY   CONDUCT  BAT-LOAD
                   ft       cfs         F      mg/l   umho/cm      volt
              Ccp-Rev   Ccp-Rev   Ccp-Rev   Ccp-Rev   Ccp-Rev   Ccp-Rev
(US/Central)
11/17 00:00      8.10       495     46.42     11.09      1358     12.83
11/17 01:00      8.10       495     45.48     11.17      1355     12.77
11/17 02:00      8.12       503     44.80     11.22      1352     12.77
11/17 03:00      8.13       506     44.37     11.17      1356     12.77
11/17 04:00      8.14       510     44.17     11.22      1374     12.71
11/17 05:00      8.14       510     44.08     11.21      1381     12.71
11/17 06:00      8.15       514     44.02     11.17      1383     12.71
11/17 07:00      8.14       510     43.95     11.20      1385     12.71
11/17 08:00      8.15       514     43.90     11.19      1380     12.77
11/17 09:00      8.16       518     44.10     11.26      1370     13.77
11/17 10:00      8.16       518     44.67     11.38      1386     14.30
11/17 11:00      8.15       514     45.32     11.36      1385     13.83
11/17 12:00      8.14       510     46.31     11.44      1385     13.77
11/17 13:00      8.15       514     47.10     11.32      1386     13.65
11/17 14:00      8.15       514     47.86     11.35      1380     13.59
11/17 15:00      8.10       495     48.54     11.27      1382     13.53
11/17 16:00      8.13       506     49.17     11.20      1383     13.53
11/17 17:00      8.07       482     49.51     11.04      1380     13.53
11/17 18:00      8.08       487     49.46     10.96      1378     13.36
11/17 19:00      8.06       478     49.21     10.89      1375     13.07
11/17 20:00      8.05       474     48.79     10.90      1383     12.89
11/17 21:00      8.06       478     48.25     10.92      1393     12.89
11/17 22:00      ----      ----      ----      ----      ----      ----
11/17 23:00      ----      ----      ----      ----      ----      ----